Time;durP1;ratioP1;P1;durP2;ratioP2;P2;SDS_P1;SDS_P2;PMS_P1;PMS_P2;Temp;Humidity;BMP_temperature;BMP_pressure;BME280_temperature;BME280_humidity;BME280_pressure;Samples;Min_cycle;Max_cycle;Signal;HPM_P1;HPM_P2
2020/12/14 00:01:35;;;;;;;13.07;3.80;;;;;;;10.43;87.00;100148.63;5093552;28;20407;-77
2020/12/14 00:04:02;;;;;;;9.20;3.58;;;;;;;10.26;87.78;100150.59;5075623;28;20058;-81
2020/12/14 00:06:29;;;;;;;11.05;3.50;;;;;;;10.52;86.79;100151.38;5115926;27;20479;-78
2020/12/14 00:08:57;;;;;;;12.75;3.58;;;;;;;10.53;86.93;100147.50;5108548;28;20038;-77
2020/12/14 00:11:34;;;;;;;14.45;3.80;;;;;;;10.69;86.21;100156.84;5120014;28;20039;-76
2020/12/14 00:14:11;;;;;;;13.73;3.60;;;;;;;10.57;86.45;100163.03;5123114;28;20047;-78
2020/12/14 00:16:40;;;;;;;10.55;3.42;;;;;;;10.52;86.42;100160.44;5104175;27;20043;-77
2020/12/14 00:19:08;;;;;;;12.70;3.38;;;;;;;10.57;86.36;100157.53;5102039;27;20043;-80
2020/12/14 00:21:35;;;;;;;12.20;3.50;;;;;;;10.52;86.59;100159.63;5075750;27;20051;-76
2020/12/14 00:24:02;;;;;;;15.63;5.07;;;;;;;10.62;86.36;100154.59;5080855;28;20123;-75
2020/12/14 00:26:29;;;;;;;12.82;3.83;;;;;;;10.60;86.14;100154.09;5081532;28;20039;-76
2020/12/14 00:28:58;;;;;;;11.70;3.83;;;;;;;10.68;85.85;100160.75;5059955;28;20056;-67
2020/12/14 00:31:26;;;;;;;10.05;3.30;;;;;;;10.55;85.97;100159.00;5097675;27;20048;-71
2020/12/14 00:33:55;;;;;;;11.48;3.50;;;;;;;10.65;85.77;100156.69;5137521;27;20047;-78
2020/12/14 00:36:22;;;;;;;10.23;3.30;;;;;;;10.69;85.80;100156.84;5130112;27;20055;-80
2020/12/14 00:38:49;;;;;;;10.65;3.20;;;;;;;10.65;85.45;100155.91;5113081;27;20402;-80
2020/12/14 00:41:18;;;;;;;8.77;3.60;;;;;;;10.51;86.02;100153.34;5138924;27;20070;-79
2020/12/14 00:43:46;;;;;;;10.67;3.80;;;;;;;10.71;85.56;100147.13;5124116;27;20047;-79
2020/12/14 00:46:17;;;;;;;11.82;3.17;;;;;;;10.64;85.29;100154.25;5135810;27;20047;-80
2020/12/14 00:48:45;;;;;;;7.80;3.20;;;;;;;10.38;86.24;100151.56;5133606;27;20043;-81
2020/12/14 00:51:12;;;;;;;8.35;3.00;;;;;;;10.54;86.46;100147.16;5133613;27;20509;-78
2020/12/14 00:53:39;;;;;;;11.73;2.80;;;;;;;10.58;85.47;100139.88;5105591;28;20052;-77
2020/12/14 00:56:06;;;;;;;10.82;2.97;;;;;;;10.64;85.46;100135.78;5103238;28;20372;-79
2020/12/14 00:58:34;;;;;;;9.10;2.92;;;;;;;10.71;85.08;100143.56;5092305;28;20051;-78
2020/12/14 01:01:06;;;;;;;12.43;3.67;;;;;;;10.62;84.79;100140.81;5084660;28;20051;-80
2020/12/14 01:03:34;;;;;;;11.63;3.40;;;;;;;10.53;85.47;100142.78;5116338;28;20056;-80
2020/12/14 01:06:02;;;;;;;9.18;3.15;;;;;;;10.53;85.22;100136.47;5098357;28;20044;-75
2020/12/14 01:08:29;;;;;;;10.20;2.65;;;;;;;10.51;85.38;100138.75;5093682;28;20036;-75
2020/12/14 01:10:56;;;;;;;10.35;3.08;;;;;;;10.48;85.26;100131.94;5105300;27;20113;-78
2020/12/14 01:13:23;;;;;;;9.95;2.63;;;;;;;10.45;85.32;100132.59;5125826;27;20039;-77
2020/12/14 01:15:51;;;;;;;11.00;2.60;;;;;;;10.36;85.71;100137.31;5146066;27;20043;-76
2020/12/14 01:18:19;;;;;;;6.00;2.67;;;;;;;10.50;85.85;100134.38;5139823;27;20055;-78
2020/12/14 01:20:46;;;;;;;10.20;3.38;;;;;;;10.49;85.27;100138.25;5108025;28;20048;-79
2020/12/14 01:23:14;;;;;;;11.73;3.42;;;;;;;10.49;85.28;100139.09;5121936;27;20050;-78
2020/12/14 01:25:41;;;;;;;8.60;3.03;;;;;;;10.33;85.46;100134.41;5118362;27;20374;-77
2020/12/14 01:28:08;;;;;;;17.02;3.40;;;;;;;10.37;85.53;100141.69;5073042;28;20055;-76
2020/12/14 01:30:35;;;;;;;13.20;3.00;;;;;;;10.23;85.88;100135.56;5087843;28;20052;-77
2020/12/14 01:33:02;;;;;;;8.85;2.50;;;;;;;10.27;86.29;100120.00;5102356;28;20039;-79
2020/12/14 01:35:30;;;;;;;11.45;2.88;;;;;;;10.42;85.36;100122.25;5122546;28;20352;-78
2020/12/14 01:37:56;;;;;;;5.80;2.40;;;;;;;10.40;85.50;100127.25;5103579;28;20051;-70
2020/12/14 01:40:23;;;;;;;15.02;3.05;;;;;;;10.43;85.41;100118.34;5124796;28;20058;-81
2020/12/14 01:42:51;;;;;;;9.02;2.42;;;;;;;10.35;85.47;100113.69;5098280;28;20060;-80
2020/12/14 01:45:18;;;;;;;11.57;2.42;;;;;;;10.35;85.70;100116.44;5115248;28;20051;-79
2020/12/14 01:47:49;;;;;;;9.80;2.42;;;;;;;10.53;85.10;100111.69;5124314;28;20051;-78
2020/12/14 01:50:17;;;;;;;8.57;2.67;;;;;;;10.40;85.04;100102.50;5117795;27;20061;-76
2020/12/14 01:52:46;;;;;;;9.73;2.92;;;;;;;10.56;84.57;100105.53;5125226;27;20050;-76
2020/12/14 01:55:18;;;;;;;8.43;2.90;;;;;;;10.34;84.77;100097.50;5092757;28;20093;-77
2020/12/14 01:57:46;;;;;;;9.18;2.42;;;;;;;10.01;86.06;100116.41;5144519;28;20418;-77
2020/12/14 02:00:14;;;;;;;11.55;2.75;;;;;;;10.04;86.33;100138.59;5140037;27;20047;-78
2020/12/14 02:02:41;;;;;;;13.45;2.80;;;;;;;10.13;86.58;100142.19;5082529;28;20058;-78
2020/12/14 02:05:08;;;;;;;9.38;2.22;;;;;;;10.12;86.28;100134.25;5099224;28;20044;-78
2020/12/14 02:07:35;;;;;;;8.10;2.35;;;;;;;10.17;85.75;100131.34;5095489;28;20051;-77
2020/12/14 02:10:02;;;;;;;11.73;3.22;;;;;;;10.18;85.89;100121.97;5100178;28;20487;-77
2020/12/14 02:12:30;;;;;;;7.35;2.22;;;;;;;10.23;85.10;100121.78;5116162;28;20039;-79
2020/12/14 02:14:58;;;;;;;7.53;2.53;;;;;;;10.20;85.29;100116.91;5116116;28;20044;-81
2020/12/14 02:17:26;;;;;;;9.80;3.08;;;;;;;10.33;84.88;100109.63;5132707;27;20047;-79
2020/12/14 02:19:54;;;;;;;11.05;2.78;;;;;;;10.21;85.06;100113.03;5104430;28;20491;-82
2020/12/14 02:22:25;;;;;;;11.13;2.60;;;;;;;10.34;84.50;100114.00;5122254;28;20052;-81
2020/12/14 02:24:58;;;;;;;11.35;3.15;;;;;;;10.41;84.24;100112.34;5103147;28;20059;-79
2020/12/14 02:27:27;;;;;;;11.90;2.63;;;;;;;10.31;84.30;100114.63;5115717;28;20044;-82
2020/12/14 02:29:55;;;;;;;8.10;2.30;;;;;;;10.37;83.98;100118.84;5095515;28;20051;-82
2020/12/14 02:32:23;;;;;;;8.57;2.38;;;;;;;10.39;84.74;100117.38;5087181;28;20059;-80
2020/12/14 02:34:50;;;;;;;9.00;2.13;;;;;;;10.54;83.57;100103.09;5068959;28;20416;-80
2020/12/14 02:37:19;;;;;;;8.93;2.50;;;;;;;10.31;84.01;100106.38;5073749;28;20052;-80
2020/12/14 02:39:46;;;;;;;8.80;2.00;;;;;;;10.56;83.10;100106.34;5085220;28;20063;-80
2020/12/14 02:42:15;;;;;;;14.45;2.65;;;;;;;10.19;84.12;100107.88;5118330;28;20051;-81
2020/12/14 02:44:43;;;;;;;9.65;2.80;;;;;;;10.31;84.65;100109.94;5122605;28;20418;-82
2020/12/14 02:47:10;;;;;;;10.00;2.65;;;;;;;10.33;84.48;100107.69;5117890;28;20047;-80
2020/12/14 02:49:38;;;;;;;6.65;2.03;;;;;;;10.26;84.50;100112.06;5114323;28;20040;-79
2020/12/14 02:52:06;;;;;;;12.50;2.80;;;;;;;10.26;84.43;100115.63;5096108;28;20048;-80
2020/12/14 02:54:34;;;;;;;10.10;2.65;;;;;;;10.20;85.04;100111.41;5097143;28;20052;-78
2020/12/14 02:57:01;;;;;;;7.43;2.33;;;;;;;10.31;84.90;100111.88;5061557;28;20044;-80
2020/12/14 02:59:27;;;;;;;12.25;2.60;;;;;;;10.30;84.68;100100.09;5096575;28;20055;-76
2020/12/14 03:01:55;;;;;;;10.88;2.55;;;;;;;10.46;83.52;100103.91;5096279;28;20110;-76
2020/12/14 03:04:22;;;;;;;6.97;2.38;;;;;;;10.36;83.58;100107.03;5115175;28;20044;-80
2020/12/14 03:06:50;;;;;;;6.88;2.10;;;;;;;10.42;83.30;100100.22;5081117;28;20045;-79
2020/12/14 03:09:18;;;;;;;12.45;2.55;;;;;;;10.57;83.53;100101.63;5088306;28;20055;-80
2020/12/14 03:11:46;;;;;;;9.68;2.42;;;;;;;10.64;82.60;100097.25;5096794;28;20047;-78
2020/12/14 03:14:14;;;;;;;8.45;2.30;;;;;;;10.54;82.61;100108.63;5116883;28;20059;-81
2020/12/14 03:16:49;;;;;;;8.95;2.40;;;;;;;10.56;82.76;100094.50;5100643;28;20048;-80
2020/12/14 03:19:18;;;;;;;7.80;2.10;;;;;;;10.47;82.65;100100.03;5116381;28;20047;-79
2020/12/14 03:21:46;;;;;;;10.43;2.17;;;;;;;10.37;82.95;100091.31;5077719;28;20040;-82
2020/12/14 03:24:13;;;;;;;6.00;1.92;;;;;;;10.45;82.75;100082.22;5093669;28;20495;-79
2020/12/14 03:26:40;;;;;;;10.60;2.42;;;;;;;10.55;82.76;100081.91;5092532;28;20041;-80
2020/12/14 03:29:09;;;;;;;9.70;2.30;;;;;;;10.55;82.27;100065.38;5075881;28;20052;-82
2020/12/14 03:31:36;;;;;;;8.10;2.30;;;;;;;10.48;82.61;100074.13;5116738;27;20044;-82
2020/12/14 03:34:04;;;;;;;9.82;2.28;;;;;;;10.42;82.95;100086.47;5137274;27;20494;-77
2020/12/14 03:36:31;;;;;;;8.00;2.85;;;;;;;10.60;82.64;100085.25;5139172;27;20062;-78
2020/12/14 03:38:59;;;;;;;6.90;2.40;;;;;;;10.62;82.42;100080.22;5137213;27;20047;-68
2020/12/14 03:41:26;;;;;;;9.70;2.83;;;;;;;10.57;82.46;100079.59;5119717;27;20047;-78
2020/12/14 03:43:55;;;;;;;8.43;2.17;;;;;;;10.75;81.78;100081.97;5067599;28;20048;-80
2020/12/14 03:46:24;;;;;;;8.63;2.10;;;;;;;10.68;81.45;100081.69;5079702;28;20514;-79
2020/12/14 03:48:58;;;;;;;7.63;2.13;;;;;;;10.69;82.07;100088.78;5097555;28;20399;-82
2020/12/14 03:51:25;;;;;;;6.25;1.75;;;;;;;10.74;81.40;100085.84;5096995;28;20048;-79
2020/12/14 03:53:53;;;;;;;7.22;1.88;;;;;;;10.82;81.17;100093.31;5082890;28;20048;-78
2020/12/14 03:56:24;;;;;;;9.90;2.15;;;;;;;10.90;81.08;100100.72;5100982;28;20499;-80
2020/12/14 03:58:51;;;;;;;7.10;2.00;;;;;;;10.82;81.11;100096.06;5095662;28;20380;-81
2020/12/14 04:01:25;;;;;;;6.03;1.98;;;;;;;10.73;82.05;100097.22;5128026;27;20054;-79
2020/12/14 04:03:53;;;;;;;8.43;2.60;;;;;;;10.81;81.68;100094.41;5124431;27;20054;-78
2020/12/14 04:06:24;;;;;;;9.95;1.98;;;;;;;10.92;81.28;100100.38;5095750;28;20044;-75
2020/12/14 04:08:52;;;;;;;4.25;1.60;;;;;;;10.93;81.03;100102.78;5095273;28;20480;-77
2020/12/14 04:11:20;;;;;;;9.55;1.80;;;;;;;10.89;81.33;100103.81;5111733;27;20055;-78
2020/12/14 04:13:47;;;;;;;5.88;1.88;;;;;;;10.83;81.84;100111.44;5099818;28;20048;-77
2020/12/14 04:16:17;;;;;;;4.88;1.60;;;;;;;10.86;81.76;100121.78;5097765;28;20062;-78
2020/12/14 04:18:44;;;;;;;6.25;2.00;;;;;;;11.02;81.61;100136.66;5117987;28;20043;-80
2020/12/14 04:21:12;;;;;;;5.68;1.77;;;;;;;11.10;80.64;100122.03;5112423;27;20039;-80
2020/12/14 04:23:38;;;;;;;9.98;2.38;;;;;;;11.24;80.08;100128.09;5111383;28;20530;-82
2020/12/14 04:26:05;;;;;;;6.88;2.35;;;;;;;11.18;80.24;100131.38;5116653;28;20043;-78
2020/12/14 04:28:33;;;;;;;6.47;2.17;;;;;;;11.31;79.94;100128.38;5117177;28;20040;-75
2020/12/14 04:31:00;;;;;;;5.68;1.55;;;;;;;11.26;80.61;100125.81;5100363;28;20043;-70
2020/12/14 04:33:28;;;;;;;5.80;1.90;;;;;;;11.35;79.99;100125.78;5115768;28;20126;-77
2020/12/14 04:35:55;;;;;;;8.27;1.52;;;;;;;11.27;80.32;100121.94;5102876;28;20047;-77
2020/12/14 04:38:22;;;;;;;7.25;1.80;;;;;;;11.42;80.25;100125.28;5107493;28;20052;-77
2020/12/14 04:40:53;;;;;;;7.28;1.63;;;;;;;11.31;80.17;100125.63;5118646;27;20054;-77
2020/12/14 04:43:23;;;;;;;5.43;1.55;;;;;;;11.41;80.31;100126.41;5089813;28;20040;-80
2020/12/14 04:45:50;;;;;;;7.72;1.80;;;;;;;11.69;79.09;100136.66;5116212;27;20062;-77
2020/12/14 04:48:18;;;;;;;8.02;1.85;;;;;;;11.67;78.68;100129.84;5102079;27;20081;-79
2020/12/14 04:50:44;;;;;;;6.15;1.60;;;;;;;11.61;78.86;100131.16;5106214;28;20624;-77
2020/12/14 04:53:11;;;;;;;6.07;1.20;;;;;;;11.56;78.61;100145.16;5096458;28;20067;-79
2020/12/14 04:55:39;;;;;;;6.20;1.45;;;;;;;11.62;78.69;100150.13;5114583;28;20047;-78
2020/12/14 04:58:07;;;;;;;7.70;1.50;;;;;;;11.48;79.39;100148.75;5077940;28;20048;-79
2020/12/14 05:00:35;;;;;;;5.63;1.30;;;;;;;11.35;79.53;100148.66;5121437;27;20391;-76
2020/12/14 05:03:03;;;;;;;6.00;1.58;;;;;;;11.44;79.61;100148.59;5129758;27;20054;-79
2020/12/14 05:05:31;;;;;;;6.63;1.48;;;;;;;11.58;79.38;100146.41;5103768;28;20044;-78
2020/12/14 05:08:00;;;;;;;9.90;1.65;;;;;;;11.47;79.82;100142.44;5061073;28;20479;-83
2020/12/14 05:10:28;;;;;;;8.38;1.77;;;;;;;11.56;79.94;100145.94;5107497;27;20363;-80
2020/12/14 05:12:56;;;;;;;4.93;1.35;;;;;;;11.51;79.86;100135.09;5135176;27;20047;-80
2020/12/14 05:15:28;;;;;;;6.05;1.40;;;;;;;11.45;80.55;100149.41;5119971;27;20062;-82
2020/12/14 05:18:13;;;;;;;5.38;1.40;;;;;;;11.48;80.25;100144.06;5119459;27;20054;-82
2020/12/14 05:20:41;;;;;;;5.60;1.80;;;;;;;11.46;80.55;100151.03;5114884;28;20055;-82
2020/12/14 05:23:09;;;;;;;6.78;1.50;;;;;;;11.58;80.18;100140.91;5118794;28;20501;-82
2020/12/14 05:25:37;;;;;;;4.53;1.50;;;;;;;11.44;80.86;100148.59;5075498;28;20051;-81
2020/12/14 05:28:05;;;;;;;8.75;1.75;;;;;;;11.14;81.82;100153.28;5074536;28;20051;-77
2020/12/14 05:30:34;;;;;;;5.70;1.80;;;;;;;11.33;81.74;100156.44;5086312;28;20070;-81
2020/12/14 05:33:01;;;;;;;8.80;2.17;;;;;;;11.30;81.44;100159.06;5132114;27;20058;-80
2020/12/14 05:35:36;;;;;;;9.13;1.92;;;;;;;11.30;81.90;100156.28;5079471;28;20043;-78
2020/12/14 05:38:10;;;;;;;7.90;1.80;;;;;;;11.38;81.62;100150.75;5113230;28;20495;-79
2020/12/14 05:40:37;;;;;;;4.55;1.50;;;;;;;11.42;81.53;100156.41;5114783;28;20059;-81
2020/12/14 05:43:08;;;;;;;7.10;1.85;;;;;;;11.40;81.61;100157.88;5096315;28;20043;-80
2020/12/14 05:45:35;;;;;;;8.23;2.15;;;;;;;11.25;81.73;100165.56;5114878;28;20040;-79
2020/12/14 05:48:03;;;;;;;5.78;1.60;;;;;;;11.34;81.80;100162.78;5078983;28;20066;-74
2020/12/14 05:50:30;;;;;;;4.07;1.58;;;;;;;11.24;81.95;100150.16;5120163;28;20050;-75
2020/12/14 05:53:05;;;;;;;8.52;1.80;;;;;;;11.13;82.20;100148.09;5115040;28;20054;-82
2020/12/14 05:55:32;;;;;;;5.70;1.90;;;;;;;11.24;81.90;100139.13;5116519;28;20106;-81
2020/12/14 05:58:01;;;;;;;8.23;2.10;;;;;;;11.20;82.07;100134.63;5135690;28;20050;-80
2020/12/14 06:00:29;;;;;;;5.57;1.58;;;;;;;11.20;81.74;100146.47;5121661;28;20047;-83
2020/12/14 06:02:56;;;;;;;8.00;1.85;;;;;;;11.47;81.67;100130.59;5137203;28;20395;-79
2020/12/14 06:05:23;;;;;;;9.13;1.88;;;;;;;11.37;81.41;100139.25;5110583;28;20054;-81
2020/12/14 06:07:59;;;;;;;6.95;1.98;;;;;;;11.39;81.04;100137.78;5071336;28;20070;-78
2020/12/14 06:10:31;;;;;;;5.63;1.60;;;;;;;11.33;81.39;100159.19;5062446;28;20055;-80
2020/12/14 06:13:06;;;;;;;6.10;1.70;;;;;;;11.44;80.66;100147.81;5096468;28;20060;-80
2020/12/14 06:15:34;;;;;;;5.60;1.83;;;;;;;11.36;80.89;100149.47;5049212;28;20071;-70
2020/12/14 06:18:02;;;;;;;5.50;1.80;;;;;;;11.48;80.43;100155.09;5114303;27;20055;-82
2020/12/14 06:20:30;;;;;;;6.00;1.85;;;;;;;11.52;80.27;100153.28;5111461;28;20058;-81
2020/12/14 06:23:02;;;;;;;6.35;1.65;;;;;;;11.61;80.20;100159.53;5118201;28;20040;-83
2020/12/14 06:25:30;;;;;;;4.60;1.70;;;;;;;11.60;79.75;100148.84;5100823;28;20050;-80
2020/12/14 06:28:29;;;;;;;5.30;1.77;;;;;;;11.58;79.76;100159.38;5114127;27;20485;-82
2020/12/14 06:30:57;;;;;;;6.47;1.77;;;;;;;11.50;80.12;100174.88;5103108;27;20134;-82
2020/12/14 06:33:38;;;;;;;5.88;1.80;;;;;;;11.64;79.68;100189.25;5110674;27;20063;-83
2020/12/14 06:36:19;;;;;;;5.65;1.77;;;;;;;11.59;79.83;100178.38;5102045;28;20043;-80
2020/12/14 06:38:48;;;;;;;6.93;1.63;;;;;;;11.66;79.03;100172.38;5081272;28;20054;-79
2020/12/14 06:41:23;;;;;;;11.98;2.30;;;;;;;11.81;78.55;100169.03;5101499;28;20055;-82
2020/12/14 06:44:04;;;;;;;9.73;1.90;;;;;;;11.68;79.05;100186.66;5117816;28;20395;-82
2020/12/14 06:46:34;;;;;;;6.80;1.90;;;;;;;11.86;78.57;100182.63;5120624;28;20056;-72
2020/12/14 06:49:08;;;;;;;6.30;1.95;;;;;;;11.76;78.41;100185.78;5104512;28;20040;-78
2020/12/14 06:51:51;;;;;;;10.25;3.78;;;;;;;11.75;78.03;100171.16;5080148;28;20140;-77
2020/12/14 06:54:43;;;;;;;9.90;3.20;;;;;;;11.69;77.98;100155.97;5062417;28;20064;-81
2020/12/14 06:57:23;;;;;;;6.78;2.20;;;;;;;11.78;78.03;100183.50;5097854;28;20063;-82
2020/12/14 06:59:51;;;;;;;;;;;;;;;11.78;77.81;100186.25;5062400;28;20045;-79
2020/12/14 07:02:18;;;;;;;5.60;2.08;;;;;;;11.77;77.89;100190.94;5077339;28;19920;-80
2020/12/14 07:04:45;;;;;;;18.50;9.90;;;;;;;11.71;77.66;100181.28;5086522;28;20415;-78
2020/12/14 07:07:13;;;;;;;13.48;5.57;;;;;;;11.77;77.97;100187.41;5101597;28;20522;-82
2020/12/14 07:09:41;;;;;;;8.18;2.45;;;;;;;11.81;77.51;100196.63;5102398;28;20815;-81
2020/12/14 07:12:08;;;;;;;8.05;2.03;;;;;;;12.11;76.52;100192.69;5100795;28;20040;-81
2020/12/14 07:14:46;;;;;;;5.18;1.98;;;;;;;12.20;75.38;100196.19;5081743;28;20044;-81
2020/12/14 07:17:24;;;;;;;9.70;2.30;;;;;;;12.00;76.28;100183.16;5098049;28;20063;-82
2020/12/14 07:19:52;;;;;;;19.55;10.10;;;;;;;12.11;75.87;100206.50;5101892;28;20322;-81
2020/12/14 07:22:20;;;;;;;33.92;16.70;;;;;;;11.97;76.16;100204.00;5061691;28;20059;-83
2020/12/14 07:25:07;;;;;;;10.27;2.90;;;;;;;12.09;75.77;100206.81;5075451;28;20040;-80
2020/12/14 07:27:35;;;;;;;7.55;1.92;;;;;;;11.81;76.91;100211.22;5096968;28;20044;-80
2020/12/14 07:30:06;;;;;;;6.53;2.00;;;;;;;11.90;76.73;100206.47;5101675;28;20051;-78
2020/12/14 07:32:33;;;;;;;8.48;2.00;;;;;;;12.17;75.88;100203.19;5093816;28;20060;-78
2020/12/14 07:35:01;;;;;;;8.07;2.10;;;;;;;12.03;75.94;100212.88;5092977;28;20067;-80
2020/12/14 07:37:28;;;;;;;7.50;2.35;;;;;;;11.94;76.33;100228.69;5054483;28;20052;-83
2020/12/14 07:39:55;;;;;;;8.35;2.10;;;;;;;11.93;76.55;100218.78;5095156;28;20055;-83
2020/12/14 07:42:23;;;;;;;8.23;1.88;;;;;;;11.94;76.71;100226.72;5059529;28;20048;-84
2020/12/14 07:44:50;;;;;;;6.60;2.50;;;;;;;11.94;76.35;100225.94;5076768;28;20048;-83
2020/12/14 07:47:21;;;;;;;11.07;3.38;;;;;;;11.82;76.52;100223.88;5077447;28;20051;-83
2020/12/14 07:49:48;;;;;;;27.42;12.30;;;;;;;12.00;76.38;100224.56;5088983;28;20272;-82
2020/12/14 07:52:29;;;;;;;10.32;2.90;;;;;;;11.81;76.43;100227.78;5058420;28;20048;-81
2020/12/14 07:55:00;;;;;;;10.13;3.30;;;;;;;12.00;76.38;100230.91;5092401;28;20053;-83
2020/12/14 07:57:34;;;;;;;14.07;4.20;;;;;;;12.05;76.29;100240.94;5094830;28;20044;-82
2020/12/14 08:00:01;;;;;;;13.35;4.05;;;;;;;12.17;75.55;100244.59;5102195;28;20041;-80
2020/12/14 08:02:39;;;;;;;8.65;3.50;;;;;;;12.16;75.37;100242.19;5062712;28;20048;-81
2020/12/14 08:05:14;;;;;;;14.60;5.53;;;;;;;12.05;75.52;100240.94;5080510;28;20495;-81
2020/12/14 08:07:47;;;;;;;10.20;3.75;;;;;;;12.13;75.44;100245.63;5097321;28;20044;-82
2020/12/14 08:13:02;;;;;;;16.25;5.55;;;;;;;12.18;74.99;100235.19;5067745;28;20059;-80
2020/12/14 08:15:30;;;;;;;8.95;3.20;;;;;;;12.08;75.45;100234.78;5090420;28;20036;-78
2020/12/14 08:18:04;;;;;;;13.20;4.30;;;;;;;12.11;75.76;100236.84;5089948;28;20053;-81
2020/12/14 08:20:34;;;;;;;13.80;3.38;;;;;;;12.16;75.50;100244.94;5085081;28;20060;-78
2020/12/14 08:23:14;;;;;;;18.17;7.90;;;;;;;12.17;75.66;100239.06;5086026;28;20071;-80
2020/12/14 08:25:53;;;;;;;10.55;3.60;;;;;;;12.16;75.50;100234.72;5074319;28;20036;-82
2020/12/14 08:28:29;;;;;;;11.93;2.90;;;;;;;12.19;75.59;100231.28;5119791;28;20491;-80
2020/12/14 08:30:59;;;;;;;13.25;2.92;;;;;;;12.29;74.75;100217.06;5096924;28;20059;-81
2020/12/14 08:33:26;;;;;;;10.05;2.70;;;;;;;12.29;75.09;100235.59;5101507;28;20055;-80
2020/12/14 08:35:55;;;;;;;10.07;2.03;;;;;;;12.16;75.09;100242.19;5101858;28;20040;-74
2020/12/14 08:38:25;;;;;;;22.33;3.17;;;;;;;12.39;74.33;100235.19;5097128;28;20166;-78
2020/12/14 08:40:54;;;;;;;16.23;3.13;;;;;;;12.26;75.22;100237.06;5079823;28;20048;-80
2020/12/14 08:43:24;;;;;;;11.05;4.00;;;;;;;12.17;75.08;100235.50;5121766;28;20040;-83
2020/12/14 08:46:09;;;;;;;17.83;3.45;;;;;;;12.19;75.09;100233.22;5102722;28;20050;-81
2020/12/14 08:48:54;;;;;;;10.50;2.97;;;;;;;12.22;74.69;100244.41;5114601;28;20059;-81
2020/12/14 08:51:30;;;;;;;9.85;2.78;;;;;;;12.20;74.83;100248.66;5099028;27;20050;-81
2020/12/14 08:54:18;;;;;;;9.98;3.03;;;;;;;12.40;74.60;100236.78;5112222;27;20498;-83
2020/12/14 08:56:46;;;;;;;14.18;2.72;;;;;;;12.26;74.71;100241.78;5116090;27;20377;-82
2020/12/14 08:59:17;;;;;;;8.35;2.30;;;;;;;12.12;75.10;100232.94;5122061;27;20032;-82
2020/12/14 09:02:00;;;;;;;11.10;2.67;;;;;;;12.34;74.25;100243.69;5113204;27;20043;-82
2020/12/14 09:04:30;;;;;;;13.45;3.30;;;;;;;12.22;74.82;100243.59;5081512;27;20054;-84
2020/12/14 09:06:58;;;;;;;11.43;2.55;;;;;;;12.16;75.02;100242.19;5099174;27;20056;-80
2020/12/14 09:09:33;;;;;;;8.55;2.30;;;;;;;12.21;74.63;100256.59;5072930;27;20274;-83
2020/12/14 09:12:01;;;;;;;8.68;2.33;;;;;;;12.25;74.77;100249.28;5111215;27;20070;-72
2020/12/14 09:14:30;;;;;;;16.33;2.72;;;;;;;12.33;74.11;100253.91;5100347;28;20399;-83
2020/12/14 09:17:02;;;;;;;7.45;2.45;;;;;;;12.20;74.69;100256.94;5114765;27;20058;-79
2020/12/14 09:19:33;;;;;;;8.90;2.30;;;;;;;12.16;75.02;100272.53;5113194;27;20035;-81
2020/12/14 09:22:03;;;;;;;8.75;2.70;;;;;;;12.18;75.07;100267.50;5105212;28;20043;-81
2020/12/14 09:24:35;;;;;;;9.88;2.65;;;;;;;12.14;75.02;100266.53;5096067;28;20052;-79
2020/12/14 09:27:10;;;;;;;7.60;2.53;;;;;;;12.21;74.59;100283.38;5095835;27;20031;-78
2020/12/14 09:29:38;;;;;;;12.10;2.83;;;;;;;12.26;74.40;100280.44;5128449;27;20043;-82
2020/12/14 09:32:06;;;;;;;8.50;3.17;;;;;;;12.29;74.43;100283.34;5107653;27;20052;-80
2020/12/14 09:34:33;;;;;;;11.10;3.33;;;;;;;12.36;74.19;100275.31;5080879;28;20051;-83
2020/12/14 09:37:01;;;;;;;9.18;2.50;;;;;;;12.62;73.56;100277.09;5073749;28;20045;-82
2020/12/14 09:39:31;;;;;;;11.07;2.60;;;;;;;12.45;73.63;100276.06;5099403;28;20479;-81
2020/12/14 09:41:59;;;;;;;32.53;17.63;;;;;;;12.26;74.52;100277.66;5064139;28;20047;-81
2020/12/14 09:44:28;;;;;;;14.40;5.07;;;;;;;12.34;74.49;100277.59;5107029;28;20044;-82
2020/12/14 09:47:04;;;;;;;11.05;3.40;;;;;;;12.42;73.77;100267.66;5105438;28;20046;-80
2020/12/14 09:49:31;;;;;;;9.57;2.88;;;;;;;12.42;73.65;100271.22;5107787;28;20505;-80
2020/12/14 09:51:58;;;;;;;10.60;2.75;;;;;;;12.40;73.53;100256.13;5084206;28;20036;-80
2020/12/14 09:54:25;;;;;;;12.32;2.63;;;;;;;12.43;73.80;100258.22;5104418;28;20054;-80
2020/12/14 09:56:52;;;;;;;13.60;2.78;;;;;;;12.36;73.78;100266.25;5069203;28;20027;-80
2020/12/14 09:59:20;;;;;;;9.60;2.97;;;;;;;12.44;73.91;100273.66;5109638;28;20044;-79
2020/12/14 10:01:47;;;;;;;9.52;3.38;;;;;;;12.43;73.78;100278.34;5114935;28;20051;-81
2020/12/14 10:04:17;;;;;;;13.65;5.65;;;;;;;12.45;74.19;100272.50;5060350;28;20052;-81
2020/12/14 10:06:48;;;;;;;7.93;2.75;;;;;;;12.46;73.89;100272.16;5087059;28;20040;-79
2020/12/14 10:09:16;;;;;;;15.07;3.22;;;;;;;12.58;73.50;100265.09;5067157;28;20495;-82
2020/12/14 10:11:43;;;;;;;11.65;3.17;;;;;;;12.67;72.93;100266.66;5072457;28;20070;-82
2020/12/14 10:14:11;;;;;;;9.73;2.72;;;;;;;12.71;72.69;100256.50;5088519;28;20039;-81
2020/12/14 10:16:38;;;;;;;10.80;2.65;;;;;;;12.64;72.95;100252.69;5053464;28;20041;-83
2020/12/14 10:19:13;;;;;;;12.98;2.95;;;;;;;12.65;73.26;100248.78;5107091;28;20491;-81
2020/12/14 10:21:40;;;;;;;6.43;2.45;;;;;;;12.71;72.80;100248.22;5088233;28;20479;-82
2020/12/14 10:24:08;;;;;;;11.23;2.83;;;;;;;12.81;72.76;100245.06;5114610;28;20044;-82
2020/12/14 10:26:36;;;;;;;8.15;2.78;;;;;;;12.59;73.27;100252.91;5094416;28;20055;-84
2020/12/14 10:29:04;;;;;;;10.13;3.10;;;;;;;12.55;73.91;100236.19;5092422;28;20039;-82
2020/12/14 10:31:32;;;;;;;10.70;2.67;;;;;;;12.57;73.60;100211.78;5095260;28;20040;-82
2020/12/14 10:34:01;;;;;;;7.07;2.40;;;;;;;12.65;73.52;100201.81;5077722;28;20052;-83
2020/12/14 10:36:28;;;;;;;12.57;3.10;;;;;;;12.72;73.14;100202.88;5086946;28;20045;-82
2020/12/14 10:38:55;;;;;;;9.95;3.40;;;;;;;13.01;72.26;100213.78;5100913;28;20048;-80
2020/12/14 10:41:22;;;;;;;10.88;2.90;;;;;;;12.85;72.63;100221.09;5112866;28;20462;-78
2020/12/14 10:43:49;;;;;;;10.85;2.70;;;;;;;12.97;72.70;100232.19;5091735;28;20048;-77
2020/12/14 10:46:17;;;;;;;8.48;2.53;;;;;;;12.84;72.88;100219.50;5098314;28;20036;-77
2020/12/14 10:48:45;;;;;;;14.82;3.00;;;;;;;12.89;72.30;100219.28;5069621;28;20055;-77
2020/12/14 10:51:12;;;;;;;32.35;21.27;;;;;;;12.79;73.48;100205.91;5069606;28;20058;-76
2020/12/14 10:53:39;;;;;;;11.68;6.05;;;;;;;12.98;72.77;100220.00;5083993;28;20036;-78
2020/12/14 10:56:06;;;;;;;9.30;3.10;;;;;;;13.16;72.46;100209.59;5101522;28;20048;-78
2020/12/14 10:58:34;;;;;;;9.23;2.72;;;;;;;13.55;72.23;100200.63;5092607;28;20054;-79
2020/12/14 11:01:01;;;;;;;7.28;2.50;;;;;;;13.52;71.25;100217.94;5087022;28;20055;-79
2020/12/14 11:03:32;;;;;;;10.45;2.80;;;;;;;13.40;70.93;100218.75;5087557;28;20047;-80
2020/12/14 11:05:59;;;;;;;9.80;2.97;;;;;;;13.54;71.23;100212.88;5089216;28;20043;-80
2020/12/14 11:08:28;;;;;;;11.15;2.80;;;;;;;13.44;70.96;100202.25;5111296;28;20399;-82
2020/12/14 11:11:02;;;;;;;12.70;3.53;;;;;;;13.79;70.48;100202.59;5100074;28;20051;-79
2020/12/14 11:13:29;;;;;;;8.00;2.75;;;;;;;13.63;70.33;100190.63;5095504;28;20047;-81
2020/12/14 11:15:59;;;;;;;15.40;3.08;;;;;;;13.21;71.40;100188.06;5084094;28;20056;-80
2020/12/14 11:18:28;;;;;;;13.57;3.63;;;;;;;13.09;72.15;100196.31;5107126;28;20052;-78
2020/12/14 11:20:55;;;;;;;8.88;3.53;;;;;;;13.25;71.99;100180.69;5108788;28;20046;-78
2020/12/14 11:23:23;;;;;;;8.10;2.78;;;;;;;13.42;71.55;100186.00;5100417;28;20043;-83
2020/12/14 11:25:55;;;;;;;20.67;9.02;;;;;;;13.39;71.50;100175.63;5097709;28;20036;-78
2020/12/14 11:28:49;;;;;;;16.10;6.40;;;;;;;13.30;71.13;100163.84;5096010;28;20048;-80
2020/12/14 11:31:22;;;;;;;8.85;3.67;;;;;;;13.50;71.03;100167.66;5083464;28;20070;-79
2020/12/14 11:34:16;;;;;;;10.63;3.13;;;;;;;13.44;71.27;100158.78;5115856;27;20052;-82
2020/12/14 11:37:09;;;;;;;12.15;3.00;;;;;;;13.08;72.16;100161.53;5107703;27;20043;-81